sensor_id;sensor_type;location;lat;lon;timestamp;P1;durP1;ratioP1;P2;durP2;ratioP2
12435;SDS011;6282;51.440;6.938;2023-03-01T00:02:06;1999.90;;;999.90;;
12435;SDS011;6282;51.440;6.938;2023-03-01T00:04:33;1999.90;;;999.90;;
12435;SDS011;6282;51.440;6.938;2023-03-01T00:07:01;1999.90;;;999.90;;
12435;SDS011;6282;51.440;6.938;2023-03-01T00:09:28;1999.90;;;999.90;;
12435;SDS011;6282;51.440;6.938;2023-03-01T00:11:55;1999.90;;;999.90;;
12435;SDS011;6282;51.440;6.938;2023-03-01T00:14:22;1999.90;;;999.90;;
12435;SDS011;6282;51.440;6.938;2023-03-01T00:16:49;1999.90;;;999.90;;
12435;SDS011;6282;51.440;6.938;2023-03-01T00:19:18;1999.90;;;999.90;;
12435;SDS011;6282;51.440;6.938;2023-03-01T00:21:47;1999.90;;;999.90;;
12435;SDS011;6282;51.440;6.938;2023-03-01T00:24:14;1999.90;;;999.90;;
12435;SDS011;6282;51.440;6.938;2023-03-01T00:26:41;1999.90;;;999.90;;
12435;SDS011;6282;51.440;6.938;2023-03-01T00:29:08;1999.90;;;999.90;;
12435;SDS011;6282;51.440;6.938;2023-03-01T00:31:36;1999.90;;;999.90;;
12435;SDS011;6282;51.440;6.938;2023-03-01T00:34:03;1999.90;;;999.90;;
12435;SDS011;6282;51.440;6.938;2023-03-01T00:36:33;1999.90;;;999.90;;
12435;SDS011;6282;51.440;6.938;2023-03-01T00:39:01;1999.90;;;999.90;;
12435;SDS011;6282;51.440;6.938;2023-03-01T00:41:30;1999.90;;;999.90;;
12435;SDS011;6282;51.440;6.938;2023-03-01T00:43:58;1999.90;;;999.90;;
12435;SDS011;6282;51.440;6.938;2023-03-01T00:46:26;1999.90;;;999.90;;
12435;SDS011;6282;51.440;6.938;2023-03-01T00:48:55;1999.90;;;999.90;;
12435;SDS011;6282;51.440;6.938;2023-03-01T00:51:22;1999.90;;;999.90;;
12435;SDS011;6282;51.440;6.938;2023-03-01T00:53:52;1999.90;;;999.90;;
12435;SDS011;6282;51.440;6.938;2023-03-01T00:56:21;1999.90;;;999.90;;
12435;SDS011;6282;51.440;6.938;2023-03-01T00:58:48;1999.90;;;999.90;;
12435;SDS011;6282;51.440;6.938;2023-03-01T01:01:16;1999.90;;;999.90;;
12435;SDS011;6282;51.440;6.938;2023-03-01T01:03:49;1999.90;;;999.90;;
12435;SDS011;6282;51.440;6.938;2023-03-01T01:06:17;1999.90;;;999.90;;
12435;SDS011;6282;51.440;6.938;2023-03-01T01:08:45;1999.90;;;999.90;;
12435;SDS011;6282;51.440;6.938;2023-03-01T01:11:13;1999.90;;;999.90;;
12435;SDS011;6282;51.440;6.938;2023-03-01T01:13:41;1999.90;;;999.90;;
12435;SDS011;6282;51.440;6.938;2023-03-01T01:16:09;1999.90;;;999.90;;
12435;SDS011;6282;51.440;6.938;2023-03-01T01:18:37;1999.90;;;999.90;;
12435;SDS011;6282;51.440;6.938;2023-03-01T01:21:05;1999.90;;;999.90;;
12435;SDS011;6282;51.440;6.938;2023-03-01T01:23:33;1999.90;;;999.90;;
12435;SDS011;6282;51.440;6.938;2023-03-01T01:26:03;1999.90;;;999.90;;
12435;SDS011;6282;51.440;6.938;2023-03-01T01:28:32;1999.90;;;999.90;;
12435;SDS011;6282;51.440;6.938;2023-03-01T01:30:59;1999.90;;;999.90;;
12435;SDS011;6282;51.440;6.938;2023-03-01T01:33:27;1999.90;;;999.90;;
12435;SDS011;6282;51.440;6.938;2023-03-01T01:35:54;1999.90;;;999.90;;
12435;SDS011;6282;51.440;6.938;2023-03-01T01:38:21;1999.90;;;999.90;;
12435;SDS011;6282;51.440;6.938;2023-03-01T01:40:49;1999.90;;;999.90;;
12435;SDS011;6282;51.440;6.938;2023-03-01T01:43:18;1999.90;;;999.90;;
12435;SDS011;6282;51.440;6.938;2023-03-01T01:45:48;1999.90;;;999.90;;
12435;SDS011;6282;51.440;6.938;2023-03-01T01:48:16;1999.90;;;999.90;;
12435;SDS011;6282;51.440;6.938;2023-03-01T01:50:45;1999.90;;;999.90;;
12435;SDS011;6282;51.440;6.938;2023-03-01T01:53:20;1999.90;;;999.90;;
12435;SDS011;6282;51.440;6.938;2023-03-01T01:55:48;1999.90;;;999.90;;
12435;SDS011;6282;51.440;6.938;2023-03-01T01:58:18;1999.90;;;999.90;;
12435;SDS011;6282;51.440;6.938;2023-03-01T02:00:48;1999.90;;;999.90;;
12435;SDS011;6282;51.440;6.938;2023-03-01T02:03:17;1999.90;;;999.90;;
12435;SDS011;6282;51.440;6.938;2023-03-01T02:05:50;1999.90;;;999.90;;
12435;SDS011;6282;51.440;6.938;2023-03-01T02:08:20;1999.90;;;999.90;;
12435;SDS011;6282;51.440;6.938;2023-03-01T02:10:49;1999.90;;;999.90;;
12435;SDS011;6282;51.440;6.938;2023-03-01T02:13:17;1999.90;;;999.90;;
12435;SDS011;6282;51.440;6.938;2023-03-01T02:15:44;1999.90;;;999.90;;
12435;SDS011;6282;51.440;6.938;2023-03-01T02:18:14;1999.90;;;999.90;;
12435;SDS011;6282;51.440;6.938;2023-03-01T02:20:47;1999.90;;;999.90;;
12435;SDS011;6282;51.440;6.938;2023-03-01T02:23:30;1999.90;;;999.90;;
12435;SDS011;6282;51.440;6.938;2023-03-01T02:26:00;1999.90;;;999.90;;
12435;SDS011;6282;51.440;6.938;2023-03-01T02:28:34;1999.90;;;999.90;;
12435;SDS011;6282;51.440;6.938;2023-03-01T02:31:03;1999.90;;;999.90;;
12435;SDS011;6282;51.440;6.938;2023-03-01T02:33:49;1999.90;;;999.90;;
12435;SDS011;6282;51.440;6.938;2023-03-01T02:36:18;1999.90;;;999.90;;
12435;SDS011;6282;51.440;6.938;2023-03-01T02:38:49;1999.90;;;999.90;;
12435;SDS011;6282;51.440;6.938;2023-03-01T02:41:18;1999.90;;;999.90;;
12435;SDS011;6282;51.440;6.938;2023-03-01T02:43:49;1999.90;;;999.90;;
12435;SDS011;6282;51.440;6.938;2023-03-01T02:46:16;1999.90;;;999.90;;
12435;SDS011;6282;51.440;6.938;2023-03-01T02:48:44;1999.90;;;999.90;;
12435;SDS011;6282;51.440;6.938;2023-03-01T02:51:18;1999.90;;;999.90;;
12435;SDS011;6282;51.440;6.938;2023-03-01T02:53:54;1999.90;;;999.90;;
12435;SDS011;6282;51.440;6.938;2023-03-01T02:56:30;1999.90;;;999.90;;
12435;SDS011;6282;51.440;6.938;2023-03-01T02:58:59;1999.90;;;999.90;;
12435;SDS011;6282;51.440;6.938;2023-03-01T03:01:27;1999.90;;;999.90;;
12435;SDS011;6282;51.440;6.938;2023-03-01T03:04:01;1999.90;;;999.90;;
12435;SDS011;6282;51.440;6.938;2023-03-01T03:06:29;1999.90;;;999.90;;
12435;SDS011;6282;51.440;6.938;2023-03-01T03:08:56;1999.90;;;999.90;;
12435;SDS011;6282;51.440;6.938;2023-03-01T03:11:23;1999.90;;;999.90;;
12435;SDS011;6282;51.440;6.938;2023-03-01T03:13:50;1999.90;;;999.90;;
12435;SDS011;6282;51.440;6.938;2023-03-01T03:16:19;1999.90;;;999.90;;
12435;SDS011;6282;51.440;6.938;2023-03-01T03:18:46;1999.90;;;999.90;;
12435;SDS011;6282;51.440;6.938;2023-03-01T03:21:14;1999.90;;;999.90;;
12435;SDS011;6282;51.440;6.938;2023-03-01T03:23:42;1999.90;;;999.90;;
12435;SDS011;6282;51.440;6.938;2023-03-01T03:26:09;1999.90;;;999.90;;
12435;SDS011;6282;51.440;6.938;2023-03-01T03:28:40;1999.90;;;999.90;;
12435;SDS011;6282;51.440;6.938;2023-03-01T03:31:07;1999.90;;;999.90;;
12435;SDS011;6282;51.440;6.938;2023-03-01T03:33:36;1999.90;;;999.90;;
12435;SDS011;6282;51.440;6.938;2023-03-01T03:36:03;1999.90;;;999.90;;
12435;SDS011;6282;51.440;6.938;2023-03-01T03:38:31;1999.90;;;999.90;;
12435;SDS011;6282;51.440;6.938;2023-03-01T03:41:00;1999.90;;;999.90;;
12435;SDS011;6282;51.440;6.938;2023-03-01T03:43:29;1999.90;;;999.90;;
12435;SDS011;6282;51.440;6.938;2023-03-01T03:45:57;1999.90;;;999.90;;
12435;SDS011;6282;51.440;6.938;2023-03-01T03:48:24;1999.90;;;999.90;;
12435;SDS011;6282;51.440;6.938;2023-03-01T03:50:54;1999.90;;;999.90;;
12435;SDS011;6282;51.440;6.938;2023-03-01T03:53:23;1999.90;;;999.90;;
12435;SDS011;6282;51.440;6.938;2023-03-01T03:55:50;1999.90;;;999.90;;
12435;SDS011;6282;51.440;6.938;2023-03-01T03:58:18;1999.90;;;999.90;;
12435;SDS011;6282;51.440;6.938;2023-03-01T04:00:47;1999.90;;;999.90;;
12435;SDS011;6282;51.440;6.938;2023-03-01T04:03:16;1999.90;;;999.90;;
12435;SDS011;6282;51.440;6.938;2023-03-01T04:05:44;1999.90;;;999.90;;
12435;SDS011;6282;51.440;6.938;2023-03-01T04:08:12;1999.90;;;999.90;;
12435;SDS011;6282;51.440;6.938;2023-03-01T04:10:40;1999.90;;;999.90;;
12435;SDS011;6282;51.440;6.938;2023-03-01T04:13:10;1999.90;;;999.90;;
12435;SDS011;6282;51.440;6.938;2023-03-01T04:15:38;1999.90;;;999.90;;
12435;SDS011;6282;51.440;6.938;2023-03-01T04:18:06;1999.90;;;999.90;;
12435;SDS011;6282;51.440;6.938;2023-03-01T04:20:34;1999.90;;;999.90;;
12435;SDS011;6282;51.440;6.938;2023-03-01T04:23:02;1999.90;;;999.90;;
12435;SDS011;6282;51.440;6.938;2023-03-01T04:25:38;1999.90;;;999.90;;
12435;SDS011;6282;51.440;6.938;2023-03-01T04:28:05;1999.90;;;999.90;;
12435;SDS011;6282;51.440;6.938;2023-03-01T04:30:32;1999.90;;;999.90;;
12435;SDS011;6282;51.440;6.938;2023-03-01T04:33:01;1999.90;;;999.90;;
12435;SDS011;6282;51.440;6.938;2023-03-01T04:35:28;1999.90;;;999.90;;
12435;SDS011;6282;51.440;6.938;2023-03-01T04:37:55;1999.90;;;999.90;;
12435;SDS011;6282;51.440;6.938;2023-03-01T04:40:22;1999.90;;;999.90;;
12435;SDS011;6282;51.440;6.938;2023-03-01T04:42:51;1999.90;;;999.90;;
12435;SDS011;6282;51.440;6.938;2023-03-01T04:45:18;1999.90;;;999.90;;
12435;SDS011;6282;51.440;6.938;2023-03-01T04:47:47;1999.90;;;999.90;;
12435;SDS011;6282;51.440;6.938;2023-03-01T04:50:16;1999.90;;;999.90;;
12435;SDS011;6282;51.440;6.938;2023-03-01T04:52:45;1999.90;;;999.90;;
12435;SDS011;6282;51.440;6.938;2023-03-01T04:55:13;1999.90;;;999.90;;
12435;SDS011;6282;51.440;6.938;2023-03-01T04:57:40;1999.90;;;999.90;;
12435;SDS011;6282;51.440;6.938;2023-03-01T05:00:10;1999.90;;;999.90;;
12435;SDS011;6282;51.440;6.938;2023-03-01T05:02:46;1999.90;;;999.90;;
12435;SDS011;6282;51.440;6.938;2023-03-01T05:05:18;1999.90;;;999.90;;
12435;SDS011;6282;51.440;6.938;2023-03-01T05:07:45;1999.90;;;999.90;;
12435;SDS011;6282;51.440;6.938;2023-03-01T05:10:12;1999.90;;;999.90;;
12435;SDS011;6282;51.440;6.938;2023-03-01T05:12:39;1999.90;;;999.90;;
12435;SDS011;6282;51.440;6.938;2023-03-01T05:15:07;1999.90;;;999.90;;
12435;SDS011;6282;51.440;6.938;2023-03-01T05:17:36;1999.90;;;999.90;;
12435;SDS011;6282;51.440;6.938;2023-03-01T05:20:03;1999.90;;;999.90;;
12435;SDS011;6282;51.440;6.938;2023-03-01T05:22:33;1999.90;;;999.90;;
12435;SDS011;6282;51.440;6.938;2023-03-01T05:25:00;1999.90;;;999.90;;
12435;SDS011;6282;51.440;6.938;2023-03-01T05:27:27;1999.90;;;999.90;;
12435;SDS011;6282;51.440;6.938;2023-03-01T05:29:54;1999.90;;;999.90;;
12435;SDS011;6282;51.440;6.938;2023-03-01T05:32:23;1999.90;;;999.90;;
12435;SDS011;6282;51.440;6.938;2023-03-01T05:34:50;1999.90;;;999.90;;
12435;SDS011;6282;51.440;6.938;2023-03-01T05:37:20;1999.90;;;999.90;;
12435;SDS011;6282;51.440;6.938;2023-03-01T05:39:47;1999.90;;;999.90;;
12435;SDS011;6282;51.440;6.938;2023-03-01T05:42:15;1999.90;;;999.90;;
12435;SDS011;6282;51.440;6.938;2023-03-01T05:44:43;1999.90;;;999.90;;
12435;SDS011;6282;51.440;6.938;2023-03-01T05:47:10;1999.90;;;999.90;;
12435;SDS011;6282;51.440;6.938;2023-03-01T05:49:38;1999.90;;;999.90;;
12435;SDS011;6282;51.440;6.938;2023-03-01T05:52:05;1999.90;;;999.90;;
12435;SDS011;6282;51.440;6.938;2023-03-01T05:54:32;1999.90;;;999.90;;
12435;SDS011;6282;51.440;6.938;2023-03-01T05:56:59;1999.90;;;999.90;;
12435;SDS011;6282;51.440;6.938;2023-03-01T05:59:27;1999.90;;;999.90;;
12435;SDS011;6282;51.440;6.938;2023-03-01T06:01:54;1999.90;;;999.90;;
12435;SDS011;6282;51.440;6.938;2023-03-01T06:04:21;1999.90;;;999.90;;
12435;SDS011;6282;51.440;6.938;2023-03-01T06:06:49;1999.90;;;999.90;;
12435;SDS011;6282;51.440;6.938;2023-03-01T06:09:16;1999.90;;;999.90;;
12435;SDS011;6282;51.440;6.938;2023-03-01T06:11:43;1999.90;;;999.90;;
12435;SDS011;6282;51.440;6.938;2023-03-01T06:14:11;1999.90;;;999.90;;
12435;SDS011;6282;51.440;6.938;2023-03-01T06:16:39;1999.90;;;999.90;;
12435;SDS011;6282;51.440;6.938;2023-03-01T06:19:06;1999.90;;;999.90;;
12435;SDS011;6282;51.440;6.938;2023-03-01T06:21:33;1999.90;;;999.90;;
12435;SDS011;6282;51.440;6.938;2023-03-01T06:24:02;1999.90;;;999.90;;
12435;SDS011;6282;51.440;6.938;2023-03-01T06:26:31;1999.90;;;999.90;;
12435;SDS011;6282;51.440;6.938;2023-03-01T06:28:58;1999.90;;;999.90;;
12435;SDS011;6282;51.440;6.938;2023-03-01T06:31:25;1999.90;;;999.90;;
12435;SDS011;6282;51.440;6.938;2023-03-01T06:33:52;1999.90;;;999.90;;
12435;SDS011;6282;51.440;6.938;2023-03-01T06:36:19;1999.90;;;999.90;;
12435;SDS011;6282;51.440;6.938;2023-03-01T06:38:47;1999.90;;;999.90;;
12435;SDS011;6282;51.440;6.938;2023-03-01T06:41:15;1999.90;;;999.90;;
12435;SDS011;6282;51.440;6.938;2023-03-01T06:43:42;1999.90;;;999.90;;
12435;SDS011;6282;51.440;6.938;2023-03-01T06:46:09;1999.90;;;999.90;;
12435;SDS011;6282;51.440;6.938;2023-03-01T06:48:36;1999.90;;;999.90;;
12435;SDS011;6282;51.440;6.938;2023-03-01T06:51:04;1999.90;;;999.90;;
12435;SDS011;6282;51.440;6.938;2023-03-01T06:53:31;1999.90;;;999.90;;
12435;SDS011;6282;51.440;6.938;2023-03-01T06:55:58;1999.90;;;999.90;;
12435;SDS011;6282;51.440;6.938;2023-03-01T06:58:27;1999.90;;;999.90;;
12435;SDS011;6282;51.440;6.938;2023-03-01T07:00:54;1999.90;;;999.90;;
12435;SDS011;6282;51.440;6.938;2023-03-01T07:03:21;1999.90;;;999.90;;
12435;SDS011;6282;51.440;6.938;2023-03-01T07:05:48;1999.90;;;999.90;;
12435;SDS011;6282;51.440;6.938;2023-03-01T07:08:17;1999.90;;;999.90;;
12435;SDS011;6282;51.440;6.938;2023-03-01T07:10:44;1999.90;;;999.90;;
12435;SDS011;6282;51.440;6.938;2023-03-01T07:13:11;1999.90;;;999.90;;
12435;SDS011;6282;51.440;6.938;2023-03-01T07:15:40;1999.90;;;999.90;;
12435;SDS011;6282;51.440;6.938;2023-03-01T07:18:07;1999.90;;;999.90;;
12435;SDS011;6282;51.440;6.938;2023-03-01T07:20:34;1999.90;;;999.90;;
12435;SDS011;6282;51.440;6.938;2023-03-01T07:23:01;1999.90;;;999.90;;
12435;SDS011;6282;51.440;6.938;2023-03-01T07:25:29;1999.90;;;999.90;;
12435;SDS011;6282;51.440;6.938;2023-03-01T07:27:57;1999.90;;;999.90;;
12435;SDS011;6282;51.440;6.938;2023-03-01T07:30:24;1999.90;;;999.90;;
12435;SDS011;6282;51.440;6.938;2023-03-01T07:32:54;1999.90;;;999.90;;
12435;SDS011;6282;51.440;6.938;2023-03-01T07:35:22;1999.90;;;999.90;;
12435;SDS011;6282;51.440;6.938;2023-03-01T07:37:49;1999.90;;;999.90;;
12435;SDS011;6282;51.440;6.938;2023-03-01T07:40:16;1999.90;;;999.90;;
12435;SDS011;6282;51.440;6.938;2023-03-01T07:42:43;1999.90;;;999.90;;
12435;SDS011;6282;51.440;6.938;2023-03-01T07:45:10;1349.17;;;681.73;;
12435;SDS011;6282;51.440;6.938;2023-03-01T07:47:38;161.87;;;154.43;;
12435;SDS011;6282;51.440;6.938;2023-03-01T07:50:07;113.10;;;107.60;;
12435;SDS011;6282;51.440;6.938;2023-03-01T07:52:35;189.23;;;180.70;;
12435;SDS011;6282;51.440;6.938;2023-03-01T07:55:03;80.30;;;76.10;;
12435;SDS011;6282;51.440;6.938;2023-03-01T07:57:30;92.27;;;87.77;;
12435;SDS011;6282;51.440;6.938;2023-03-01T07:59:57;126.80;;;120.90;;
12435;SDS011;6282;51.440;6.938;2023-03-01T08:02:24;151.70;;;144.97;;
12435;SDS011;6282;51.440;6.938;2023-03-01T08:04:51;154.33;;;147.47;;
12435;SDS011;6282;51.440;6.938;2023-03-01T08:07:19;167.77;;;160.00;;
12435;SDS011;6282;51.440;6.938;2023-03-01T08:09:45;145.53;;;139.13;;
12435;SDS011;6282;51.440;6.938;2023-03-01T08:12:12;1999.90;;;999.90;;
12435;SDS011;6282;51.440;6.938;2023-03-01T08:14:41;1999.90;;;999.90;;
12435;SDS011;6282;51.440;6.938;2023-03-01T08:17:08;1999.90;;;999.90;;
12435;SDS011;6282;51.440;6.938;2023-03-01T08:19:35;1999.90;;;999.90;;
12435;SDS011;6282;51.440;6.938;2023-03-01T08:22:02;1999.90;;;999.90;;
12435;SDS011;6282;51.440;6.938;2023-03-01T08:24:30;1999.90;;;999.90;;
12435;SDS011;6282;51.440;6.938;2023-03-01T08:26:57;1999.90;;;999.90;;
12435;SDS011;6282;51.440;6.938;2023-03-01T08:29:24;1999.90;;;999.90;;
12435;SDS011;6282;51.440;6.938;2023-03-01T08:31:51;1999.90;;;999.90;;
12435;SDS011;6282;51.440;6.938;2023-03-01T08:34:19;1999.90;;;999.90;;
12435;SDS011;6282;51.440;6.938;2023-03-01T08:36:46;1999.90;;;999.90;;
12435;SDS011;6282;51.440;6.938;2023-03-01T08:39:13;1999.90;;;999.90;;
12435;SDS011;6282;51.440;6.938;2023-03-01T08:41:43;1999.90;;;999.90;;
12435;SDS011;6282;51.440;6.938;2023-03-01T08:44:10;1999.90;;;999.90;;
12435;SDS011;6282;51.440;6.938;2023-03-01T08:46:41;1999.90;;;999.90;;
12435;SDS011;6282;51.440;6.938;2023-03-01T08:49:10;1999.90;;;999.90;;
12435;SDS011;6282;51.440;6.938;2023-03-01T08:51:39;1999.90;;;999.90;;
12435;SDS011;6282;51.440;6.938;2023-03-01T08:54:06;1999.90;;;999.90;;
12435;SDS011;6282;51.440;6.938;2023-03-01T08:56:35;1999.90;;;999.90;;
12435;SDS011;6282;51.440;6.938;2023-03-01T08:59:04;1999.90;;;999.90;;
12435;SDS011;6282;51.440;6.938;2023-03-01T09:01:31;1999.90;;;999.90;;
12435;SDS011;6282;51.440;6.938;2023-03-01T09:03:58;1999.90;;;999.90;;
12435;SDS011;6282;51.440;6.938;2023-03-01T09:06:25;1999.90;;;999.90;;
12435;SDS011;6282;51.440;6.938;2023-03-01T09:08:52;1999.90;;;999.90;;
12435;SDS011;6282;51.440;6.938;2023-03-01T09:11:20;1999.90;;;999.90;;
12435;SDS011;6282;51.440;6.938;2023-03-01T09:13:48;1512.03;;;761.47;;
12435;SDS011;6282;51.440;6.938;2023-03-01T09:16:17;1999.90;;;999.90;;
12435;SDS011;6282;51.440;6.938;2023-03-01T09:18:45;1999.90;;;999.90;;
12435;SDS011;6282;51.440;6.938;2023-03-01T09:21:13;1999.90;;;999.90;;
12435;SDS011;6282;51.440;6.938;2023-03-01T09:23:42;1999.90;;;999.90;;
12435;SDS011;6282;51.440;6.938;2023-03-01T09:26:10;1999.90;;;999.90;;
12435;SDS011;6282;51.440;6.938;2023-03-01T09:28:40;1999.90;;;999.90;;
12435;SDS011;6282;51.440;6.938;2023-03-01T09:31:06;1999.90;;;999.90;;
12435;SDS011;6282;51.440;6.938;2023-03-01T09:33:35;1999.90;;;999.90;;
12435;SDS011;6282;51.440;6.938;2023-03-01T09:36:02;1999.90;;;999.90;;
12435;SDS011;6282;51.440;6.938;2023-03-01T09:38:30;1999.90;;;999.90;;
12435;SDS011;6282;51.440;6.938;2023-03-01T09:40:58;1999.90;;;999.90;;
12435;SDS011;6282;51.440;6.938;2023-03-01T09:43:27;1999.90;;;999.90;;
12435;SDS011;6282;51.440;6.938;2023-03-01T09:45:58;1999.90;;;999.90;;
12435;SDS011;6282;51.440;6.938;2023-03-01T09:48:26;1999.90;;;999.90;;
12435;SDS011;6282;51.440;6.938;2023-03-01T09:50:58;1999.90;;;999.90;;
12435;SDS011;6282;51.440;6.938;2023-03-01T09:53:35;1999.90;;;999.90;;
12435;SDS011;6282;51.440;6.938;2023-03-01T09:56:04;1999.90;;;999.90;;
12435;SDS011;6282;51.440;6.938;2023-03-01T09:58:40;1999.90;;;999.90;;
12435;SDS011;6282;51.440;6.938;2023-03-01T10:01:24;111.43;;;106.00;;
12435;SDS011;6282;51.440;6.938;2023-03-01T10:04:04;52.43;;;49.70;;
12435;SDS011;6282;51.440;6.938;2023-03-01T10:06:40;1999.90;;;999.90;;
12435;SDS011;6282;51.440;6.938;2023-03-01T10:09:10;1999.90;;;999.90;;
12435;SDS011;6282;51.440;6.938;2023-03-01T10:11:41;1999.90;;;999.90;;
12435;SDS011;6282;51.440;6.938;2023-03-01T10:14:13;1999.90;;;999.90;;
12435;SDS011;6282;51.440;6.938;2023-03-01T10:16:48;1999.90;;;999.90;;
12435;SDS011;6282;51.440;6.938;2023-03-01T10:19:20;1999.90;;;999.90;;
12435;SDS011;6282;51.440;6.938;2023-03-01T10:21:52;1999.90;;;999.90;;
12435;SDS011;6282;51.440;6.938;2023-03-01T10:24:20;1999.90;;;999.90;;
12435;SDS011;6282;51.440;6.938;2023-03-01T10:26:48;1351.93;;;684.40;;
12435;SDS011;6282;51.440;6.938;2023-03-01T10:29:18;109.00;;;102.53;;
12435;SDS011;6282;51.440;6.938;2023-03-01T10:31:50;1999.90;;;999.90;;
12435;SDS011;6282;51.440;6.938;2023-03-01T10:34:20;1999.90;;;999.90;;
12435;SDS011;6282;51.440;6.938;2023-03-01T10:36:49;89.77;;;85.57;;
12435;SDS011;6282;51.440;6.938;2023-03-01T10:39:22;1999.90;;;999.90;;
12435;SDS011;6282;51.440;6.938;2023-03-01T10:41:57;73.67;;;70.13;;
12435;SDS011;6282;51.440;6.938;2023-03-01T10:44:40;105.13;;;99.93;;
12435;SDS011;6282;51.440;6.938;2023-03-01T10:47:12;110.67;;;105.23;;
12435;SDS011;6282;51.440;6.938;2023-03-01T10:49:49;104.43;;;99.53;;
12435;SDS011;6282;51.440;6.938;2023-03-01T10:52:23;728.10;;;391.73;;
12435;SDS011;6282;51.440;6.938;2023-03-01T10:54:53;118.53;;;113.00;;
12435;SDS011;6282;51.440;6.938;2023-03-01T10:57:28;110.43;;;104.27;;
12435;SDS011;6282;51.440;6.938;2023-03-01T11:00:02;70.40;;;67.00;;
12435;SDS011;6282;51.440;6.938;2023-03-01T11:02:47;70.17;;;66.67;;
12435;SDS011;6282;51.440;6.938;2023-03-01T11:05:17;387.30;;;355.17;;
12435;SDS011;6282;51.440;6.938;2023-03-01T11:07:50;119.07;;;112.30;;
12435;SDS011;6282;51.440;6.938;2023-03-01T11:10:18;72.83;;;68.93;;
12435;SDS011;6282;51.440;6.938;2023-03-01T11:12:46;80.47;;;76.57;;
12435;SDS011;6282;51.440;6.938;2023-03-01T11:15:21;61.23;;;58.30;;
12435;SDS011;6282;51.440;6.938;2023-03-01T11:17:49;77.23;;;73.57;;
12435;SDS011;6282;51.440;6.938;2023-03-01T11:20:18;119.60;;;113.77;;
12435;SDS011;6282;51.440;6.938;2023-03-01T11:22:53;59.87;;;57.13;;
12435;SDS011;6282;51.440;6.938;2023-03-01T11:25:23;158.57;;;150.70;;
12435;SDS011;6282;51.440;6.938;2023-03-01T11:27:52;331.23;;;311.47;;
12435;SDS011;6282;51.440;6.938;2023-03-01T11:30:21;61.40;;;58.27;;
12435;SDS011;6282;51.440;6.938;2023-03-01T11:32:57;73.03;;;69.23;;
12435;SDS011;6282;51.440;6.938;2023-03-01T11:35:27;198.70;;;187.50;;
12435;SDS011;6282;51.440;6.938;2023-03-01T11:37:59;133.73;;;127.43;;
12435;SDS011;6282;51.440;6.938;2023-03-01T11:40:31;90.50;;;86.30;;
12435;SDS011;6282;51.440;6.938;2023-03-01T11:43:05;120.03;;;114.57;;
12435;SDS011;6282;51.440;6.938;2023-03-01T11:45:42;151.83;;;144.40;;
12435;SDS011;6282;51.440;6.938;2023-03-01T11:48:24;110.00;;;104.93;;
12435;SDS011;6282;51.440;6.938;2023-03-01T11:51:13;82.37;;;78.03;;
12435;SDS011;6282;51.440;6.938;2023-03-01T11:53:59;76.80;;;73.10;;
12435;SDS011;6282;51.440;6.938;2023-03-01T11:56:34;82.83;;;78.53;;
12435;SDS011;6282;51.440;6.938;2023-03-01T11:59:13;85.27;;;81.33;;
12435;SDS011;6282;51.440;6.938;2023-03-01T12:02:11;82.10;;;78.10;;
12435;SDS011;6282;51.440;6.938;2023-03-01T12:04:54;83.47;;;79.60;;
12435;SDS011;6282;51.440;6.938;2023-03-01T12:07:44;111.57;;;106.27;;
12435;SDS011;6282;51.440;6.938;2023-03-01T12:10:21;112.50;;;107.10;;
12435;SDS011;6282;51.440;6.938;2023-03-01T12:13:05;179.00;;;169.50;;
12435;SDS011;6282;51.440;6.938;2023-03-01T12:15:47;90.10;;;85.93;;
12435;SDS011;6282;51.440;6.938;2023-03-01T12:18:30;81.40;;;77.63;;
12435;SDS011;6282;51.440;6.938;2023-03-01T12:21:15;71.93;;;68.47;;
12435;SDS011;6282;51.440;6.938;2023-03-01T12:23:59;100.60;;;96.03;;
12435;SDS011;6282;51.440;6.938;2023-03-01T12:26:53;91.83;;;87.60;;
12435;SDS011;6282;51.440;6.938;2023-03-01T12:29:31;69.27;;;65.83;;
12435;SDS011;6282;51.440;6.938;2023-03-01T12:32:13;78.97;;;75.37;;
12435;SDS011;6282;51.440;6.938;2023-03-01T12:34:55;73.60;;;70.03;;
12435;SDS011;6282;51.440;6.938;2023-03-01T12:37:46;99.90;;;94.93;;
12435;SDS011;6282;51.440;6.938;2023-03-01T12:43:28;74.37;;;70.87;;
12435;SDS011;6282;51.440;6.938;2023-03-01T12:46:07;64.77;;;61.23;;
12435;SDS011;6282;51.440;6.938;2023-03-01T12:48:40;76.70;;;73.03;;
12435;SDS011;6282;51.440;6.938;2023-03-01T12:51:14;77.40;;;73.80;;
12435;SDS011;6282;51.440;6.938;2023-03-01T12:53:46;138.27;;;131.13;;
12435;SDS011;6282;51.440;6.938;2023-03-01T12:56:17;93.20;;;88.97;;
12435;SDS011;6282;51.440;6.938;2023-03-01T12:58:50;117.70;;;112.10;;
12435;SDS011;6282;51.440;6.938;2023-03-01T13:01:25;89.70;;;85.50;;
12435;SDS011;6282;51.440;6.938;2023-03-01T13:04:06;112.17;;;107.00;;
12435;SDS011;6282;51.440;6.938;2023-03-01T13:06:38;93.77;;;89.37;;
12435;SDS011;6282;51.440;6.938;2023-03-01T13:09:11;103.50;;;98.83;;
12435;SDS011;6282;51.440;6.938;2023-03-01T13:11:46;136.63;;;130.43;;
12435;SDS011;6282;51.440;6.938;2023-03-01T13:19:58;105.30;;;100.40;;
12435;SDS011;6282;51.440;6.938;2023-03-01T13:22:26;118.67;;;113.03;;
12435;SDS011;6282;51.440;6.938;2023-03-01T13:25:10;123.10;;;117.50;;
12435;SDS011;6282;51.440;6.938;2023-03-01T13:27:40;96.53;;;92.13;;
12435;SDS011;6282;51.440;6.938;2023-03-01T13:30:37;239.80;;;226.97;;
12435;SDS011;6282;51.440;6.938;2023-03-01T13:36:06;84.30;;;80.13;;
12435;SDS011;6282;51.440;6.938;2023-03-01T13:38:37;122.73;;;117.20;;
12435;SDS011;6282;51.440;6.938;2023-03-01T13:41:06;139.77;;;133.23;;
12435;SDS011;6282;51.440;6.938;2023-03-01T13:43:34;139.60;;;133.47;;
12435;SDS011;6282;51.440;6.938;2023-03-01T13:46:07;115.80;;;110.60;;
12435;SDS011;6282;51.440;6.938;2023-03-01T13:48:37;119.43;;;113.93;;
12435;SDS011;6282;51.440;6.938;2023-03-01T13:51:07;161.90;;;154.90;;
12435;SDS011;6282;51.440;6.938;2023-03-01T13:53:38;137.17;;;131.10;;
12435;SDS011;6282;51.440;6.938;2023-03-01T13:56:08;153.93;;;147.07;;
12435;SDS011;6282;51.440;6.938;2023-03-01T13:58:46;157.87;;;150.87;;
12435;SDS011;6282;51.440;6.938;2023-03-01T14:01:24;175.67;;;166.23;;
12435;SDS011;6282;51.440;6.938;2023-03-01T14:03:52;274.23;;;259.90;;
12435;SDS011;6282;51.440;6.938;2023-03-01T14:06:20;135.90;;;129.80;;
12435;SDS011;6282;51.440;6.938;2023-03-01T14:08:49;156.30;;;149.40;;
12435;SDS011;6282;51.440;6.938;2023-03-01T14:11:35;151.80;;;144.93;;
12435;SDS011;6282;51.440;6.938;2023-03-01T14:17:19;143.87;;;137.37;;
12435;SDS011;6282;51.440;6.938;2023-03-01T14:19:54;144.83;;;138.30;;
12435;SDS011;6282;51.440;6.938;2023-03-01T14:22:23;148.47;;;141.97;;
12435;SDS011;6282;51.440;6.938;2023-03-01T14:24:53;138.17;;;132.07;;
12435;SDS011;6282;51.440;6.938;2023-03-01T14:27:23;137.17;;;131.13;;
12435;SDS011;6282;51.440;6.938;2023-03-01T14:29:55;145.60;;;138.90;;
12435;SDS011;6282;51.440;6.938;2023-03-01T14:32:26;129.60;;;123.83;;
12435;SDS011;6282;51.440;6.938;2023-03-01T14:34:54;151.13;;;144.47;;
12435;SDS011;6282;51.440;6.938;2023-03-01T14:37:23;227.23;;;213.77;;